Terminal Aerodrome Forecast
Issued by NWS Grand Forks, ND

Home | Current Version | Previous Version | Graphics & Text | Print | Product List | Glossary On
Versions: 1 2 3 4 5 6 7 8 9 10 11 12 13 14 15 16 17 18 19
661
FTUS43 KFGF 081736
TAFFAR
TAF
KFAR 081736Z 0818/0918 27011KT P6SM OVC080
     FM082000 29013KT P6SM BKN080
     FM082300 33016G25KT P6SM BKN030
     FM090800 34011KT P6SM BKN050
     FM091300 33007KT P6SM SCT070
     FM091700 27005KT P6SM SCT070=

USA.gov is the U.S. government's official web portal to all federal, state and local government web resources and services.